createdAt,value
2019-05-05T00:00:40.576Z,44.05
2019-05-05T00:03:14.756Z,40.78
2019-05-05T00:05:48.955Z,40.17
2019-05-05T00:08:21.949Z,37.42
2019-05-05T00:11:11.471Z,37.98
2019-05-05T00:13:45.594Z,36.40
2019-05-05T00:16:31.835Z,33.08
2019-05-05T00:19:04.919Z,32.23
2019-05-05T00:21:38.827Z,35.13
2019-05-05T00:24:11.623Z,40.17
2019-05-05T00:26:45.920Z,37.13
2019-05-05T00:29:18.171Z,36.85
2019-05-05T00:31:50.833Z,35.17
2019-05-05T00:34:24.467Z,33.50
2019-05-05T00:36:57.607Z,27.22
2019-05-05T00:42:04.656Z,35.48
2019-05-05T00:44:36.459Z,38.08
2019-05-05T00:47:26.806Z,36.28
2019-05-05T00:49:59.806Z,34.48
2019-05-05T00:52:34.979Z,32.10
2019-05-05T00:55:11.263Z,34.08
2019-05-05T00:57:45.313Z,35.63
2019-05-05T01:00:24.671Z,30.80
2019-05-05T01:02:58.001Z,31.85
2019-05-05T01:05:34.847Z,32.00
2019-05-05T01:08:09.962Z,29.63
2019-05-05T01:10:44.232Z,36.05
2019-05-05T01:13:16.622Z,35.45
2019-05-05T01:15:49.420Z,38.28
2019-05-05T01:18:24.448Z,32.90
2019-05-05T01:20:56.401Z,32.33
2019-05-05T01:23:28.960Z,36.23
2019-05-05T01:26:01.404Z,35.90
2019-05-05T01:28:35.538Z,32.98
2019-05-05T01:31:09.754Z,28.55
2019-05-05T01:33:44.868Z,30.92
2019-05-05T01:36:19.871Z,33.98
2019-05-05T01:38:56.811Z,33.20
2019-05-05T01:41:34.784Z,37.08
2019-05-05T01:44:08.412Z,35.80
2019-05-05T01:46:40.954Z,33.75
2019-05-05T01:49:14.667Z,37.23
2019-05-05T01:51:47.809Z,38.90
2019-05-05T01:56:52.428Z,41.20
2019-05-05T01:59:25.528Z,35.43
2019-05-05T02:01:58.213Z,31.50
2019-05-05T02:07:02.532Z,35.30
2019-05-05T02:09:35.406Z,36.50
2019-05-05T02:12:08.279Z,39.75
2019-05-05T02:14:41.071Z,37.23
2019-05-05T02:17:15.449Z,39.20
2019-05-05T02:19:49.148Z,37.73
2019-05-05T02:22:21.667Z,36.45
2019-05-05T02:24:56.065Z,39.25
2019-05-05T02:27:28.966Z,34.78
2019-05-05T02:30:06.015Z,32.93
2019-05-05T02:32:45.318Z,33.13
2019-05-05T02:35:17.995Z,35.13
2019-05-05T02:37:50.724Z,33.28
2019-05-05T02:40:24.522Z,37.35
2019-05-05T02:42:57.915Z,41.37
2019-05-05T02:45:35.376Z,44.05
2019-05-05T02:48:15.278Z,53.45
2019-05-05T02:51:01.726Z,53.52
2019-05-05T02:53:38.697Z,67.08
2019-05-05T02:56:14.867Z,67.72
2019-05-05T02:58:55.495Z,61.13
2019-05-05T03:01:44.543Z,72.75
2019-05-05T03:04:16.983Z,63.80
2019-05-05T03:06:54.194Z,67.72
2019-05-05T03:09:30.603Z,64.55
2019-05-05T03:12:05.402Z,67.22
2019-05-05T03:14:40.155Z,65.40
2019-05-05T03:17:14.511Z,64.58
2019-05-05T03:19:46.933Z,66.45
2019-05-05T03:22:19.785Z,63.25
2019-05-05T03:24:54.030Z,65.00
2019-05-05T03:27:26.054Z,69.97
2019-05-05T03:29:59.000Z,66.25
2019-05-05T03:32:35.716Z,66.02
2019-05-05T03:35:06.617Z,68.25
2019-05-05T03:37:39.183Z,62.58
2019-05-05T03:40:14.804Z,61.28
2019-05-05T03:42:48.745Z,58.68
2019-05-05T03:45:25.667Z,60.63
2019-05-05T03:47:58.646Z,51.33
2019-05-05T03:53:04.806Z,52.40
2019-05-05T03:55:37.753Z,53.73
2019-05-05T03:58:10.763Z,53.55
2019-05-05T04:00:49.296Z,50.23
2019-05-05T04:03:23.674Z,48.73
2019-05-05T04:05:57.350Z,46.85
2019-05-05T04:08:30.673Z,48.02
2019-05-05T04:11:05.650Z,46.15
2019-05-05T04:13:38.541Z,49.15
2019-05-05T04:16:13.645Z,48.25
2019-05-05T04:18:54.254Z,49.85
2019-05-05T04:21:33.766Z,47.43
2019-05-05T04:24:06.027Z,46.95
2019-05-05T04:26:39.070Z,47.17
2019-05-05T04:29:13.824Z,53.63
2019-05-05T04:31:46.454Z,45.75
2019-05-05T04:35:37.014Z,49.10
2019-05-05T04:37:10.823Z,47.73
2019-05-05T04:42:16.176Z,55.80
2019-05-05T04:44:48.825Z,46.80
2019-05-05T04:50:04.194Z,52.00
2019-05-05T04:52:35.972Z,52.40
2019-05-05T04:55:09.712Z,124.12
2019-05-05T04:57:43.674Z,79.62
2019-05-05T05:00:16.896Z,77.47
2019-05-05T05:05:33.861Z,55.20
2019-05-05T05:08:06.713Z,58.52
2019-05-05T05:10:39.229Z,56.80
2019-05-05T05:13:13.348Z,58.60
2019-05-05T05:15:45.769Z,57.05
2019-05-05T05:18:18.771Z,61.68
2019-05-05T05:20:51.628Z,55.73
2019-05-05T05:23:24.657Z,54.48
2019-05-05T05:25:57.297Z,57.98
2019-05-05T05:28:30.179Z,55.17
2019-05-05T05:31:03.976Z,56.25
2019-05-05T05:33:36.826Z,53.25
2019-05-05T05:36:09.344Z,54.38
2019-05-05T05:38:43.750Z,56.28
2019-05-05T05:41:20.779Z,54.48
2019-05-05T05:44:11.029Z,54.10
2019-05-05T05:46:45.537Z,56.35
2019-05-05T05:49:19.342Z,53.35
2019-05-05T05:51:53.781Z,60.65
2019-05-05T05:54:26.393Z,62.15
2019-05-05T05:56:59.185Z,58.52
2019-05-05T05:59:33.831Z,54.35
2019-05-05T06:02:12.297Z,57.50
2019-05-05T06:04:40.755Z,56.90
2019-05-05T06:07:14.260Z,58.75
2019-05-05T06:09:47.449Z,55.98
2019-05-05T06:12:20.243Z,58.52
2019-05-05T06:14:53.689Z,60.75
2019-05-05T06:17:26.358Z,57.15
2019-05-05T06:19:59.490Z,60.90
2019-05-05T06:22:33.877Z,60.83
2019-05-05T06:25:07.433Z,63.38
2019-05-05T06:27:40.622Z,61.80
2019-05-05T06:30:16.098Z,59.13
2019-05-05T06:32:49.172Z,62.20
2019-05-05T06:35:21.950Z,62.67
2019-05-05T06:37:54.918Z,61.50
2019-05-05T06:43:04.401Z,63.33
2019-05-05T06:45:37.932Z,63.78
2019-05-05T06:48:10.580Z,61.35
2019-05-05T06:53:16.371Z,60.57
2019-05-05T06:58:20.762Z,67.15
2019-05-05T07:00:54.296Z,64.55
2019-05-05T07:03:26.946Z,66.22
2019-05-05T07:05:59.513Z,70.90
2019-05-05T07:08:34.496Z,61.80
2019-05-05T07:11:07.546Z,66.85
2019-05-05T07:13:39.952Z,65.12
2019-05-05T07:16:14.731Z,60.05
2019-05-05T07:18:46.213Z,65.67
2019-05-05T07:21:18.694Z,64.32
2019-05-05T07:23:51.019Z,63.75
2019-05-05T07:26:23.869Z,64.62
2019-05-05T07:28:56.160Z,66.00
2019-05-05T07:31:29.048Z,67.55
2019-05-05T07:34:04.586Z,59.23
2019-05-05T07:36:49.884Z,65.32
2019-05-05T07:39:23.747Z,67.05
2019-05-05T07:41:57.083Z,68.40
2019-05-05T07:44:29.931Z,60.98
2019-05-05T07:47:03.948Z,64.00
2019-05-05T07:49:37.063Z,64.20
2019-05-05T07:52:10.306Z,63.85
2019-05-05T07:54:43.627Z,58.83
2019-05-05T07:57:16.141Z,58.65
2019-05-05T07:59:48.541Z,61.58
2019-05-05T08:02:23.522Z,60.70
2019-05-05T08:04:56.751Z,53.92
2019-05-05T08:07:29.374Z,55.17
2019-05-05T08:10:04.381Z,61.25
2019-05-05T08:12:36.139Z,61.28
2019-05-05T08:18:04.438Z,48.10
2019-05-05T08:20:38.393Z,61.18
2019-05-05T08:23:28.014Z,64.05
2019-05-05T08:25:47.153Z,65.00
2019-05-05T08:28:29.971Z,61.35
2019-05-05T08:31:04.642Z,62.50
2019-05-05T08:33:37.042Z,61.50
2019-05-05T08:36:10.079Z,62.20
2019-05-05T08:41:13.995Z,61.42
2019-05-05T08:43:46.721Z,63.38
2019-05-05T08:46:19.187Z,53.40
2019-05-05T08:48:53.633Z,60.67
2019-05-05T08:51:26.011Z,58.92
2019-05-05T08:53:58.516Z,65.97
2019-05-05T08:56:31.350Z,64.87
2019-05-05T08:59:03.903Z,65.55
2019-05-05T09:01:36.521Z,62.50
2019-05-05T09:04:08.944Z,62.93
2019-05-05T09:06:43.727Z,65.72
2019-05-05T09:09:16.132Z,62.93
2019-05-05T09:11:48.631Z,66.90
2019-05-05T09:14:24.724Z,64.53
2019-05-05T09:16:57.513Z,65.32
2019-05-05T09:19:30.346Z,63.17
2019-05-05T09:22:06.719Z,65.55
2019-05-05T09:24:41.789Z,61.65
2019-05-05T09:27:16.101Z,65.32
2019-05-05T09:29:48.931Z,63.15
2019-05-05T09:32:24.135Z,61.98
2019-05-05T09:34:55.825Z,62.75
2019-05-05T09:37:29.292Z,64.20
2019-05-05T09:40:01.870Z,65.72
2019-05-05T09:42:35.289Z,63.75
2019-05-05T09:45:09.209Z,63.87
2019-05-05T09:47:41.827Z,62.10
2019-05-05T09:52:46.915Z,66.28
2019-05-05T09:55:19.432Z,68.95
2019-05-05T09:57:54.014Z,63.78
2019-05-05T10:00:26.360Z,66.02
2019-05-05T10:02:58.786Z,67.55
2019-05-05T10:05:34.098Z,67.32
2019-05-05T10:08:06.578Z,65.80
2019-05-05T10:13:14.566Z,61.30
2019-05-05T10:15:46.248Z,67.08
2019-05-05T10:18:18.640Z,68.42
2019-05-05T10:20:54.065Z,67.40
2019-05-05T10:23:31.442Z,67.87
2019-05-05T10:26:06.356Z,68.85
2019-05-05T10:28:39.322Z,64.82
2019-05-05T10:33:47.806Z,66.47
2019-05-05T10:36:20.279Z,62.40
2019-05-05T10:38:54.441Z,65.85
2019-05-05T10:41:27.622Z,75.12
2019-05-05T10:46:33.985Z,67.87
2019-05-05T10:49:06.276Z,69.70
2019-05-05T10:56:40.609Z,65.70
2019-05-05T10:59:12.955Z,71.05
2019-05-05T11:01:45.890Z,70.17
2019-05-05T11:04:18.175Z,71.53
2019-05-05T11:06:50.902Z,68.90
2019-05-05T11:09:24.418Z,70.25
2019-05-05T11:11:57.287Z,72.65
2019-05-05T11:14:29.751Z,74.75
2019-05-05T11:19:35.394Z,60.10
2019-05-05T11:22:08.608Z,76.37
2019-05-05T11:24:54.223Z,76.40
2019-05-05T11:27:15.802Z,74.77
2019-05-05T11:30:05.494Z,73.85
2019-05-05T11:32:56.491Z,73.30
2019-05-05T11:35:46.950Z,71.47
2019-05-05T11:38:24.707Z,73.83
2019-05-05T11:40:57.687Z,70.32
2019-05-05T11:43:33.733Z,67.15
2019-05-05T11:46:06.890Z,71.57
2019-05-05T11:48:40.689Z,66.10
2019-05-05T11:54:09.379Z,58.00
2019-05-05T11:56:44.519Z,51.92
2019-05-05T11:59:16.806Z,44.65
2019-05-05T12:04:23.921Z,43.42
2019-05-05T12:06:59.155Z,41.75
2019-05-05T12:09:33.748Z,40.28
2019-05-05T12:12:07.396Z,43.73
2019-05-05T12:14:40.289Z,42.73
2019-05-05T12:17:26.698Z,41.40
2019-05-05T12:20:07.008Z,41.23
2019-05-05T12:22:44.677Z,40.48
2019-05-05T12:25:43.716Z,40.43
2019-05-05T12:28:25.114Z,41.33
2019-05-05T12:31:16.903Z,40.58
2019-05-05T12:33:49.739Z,41.50
2019-05-05T12:39:22.167Z,41.35
2019-05-05T12:41:54.616Z,44.15
2019-05-05T12:44:33.989Z,39.80
2019-05-05T12:47:15.523Z,41.73
2019-05-05T12:49:56.661Z,40.50
2019-05-05T12:52:34.290Z,42.03
2019-05-05T12:55:08.736Z,40.78
2019-05-05T12:57:43.505Z,39.25
2019-05-05T13:00:17.031Z,38.88
2019-05-05T13:02:53.682Z,39.30
2019-05-05T13:05:26.216Z,39.05
2019-05-05T13:07:58.694Z,38.95
2019-05-05T13:10:34.806Z,42.85
2019-05-05T13:13:19.544Z,37.30
2019-05-05T13:15:56.909Z,38.63
2019-05-05T13:18:31.038Z,40.45
2019-05-05T13:21:14.060Z,39.55
2019-05-05T13:23:54.455Z,39.78
2019-05-05T13:26:31.058Z,42.08
2019-05-05T13:29:04.759Z,41.28
2019-05-05T13:31:40.830Z,39.85
2019-05-05T13:34:14.171Z,40.98
2019-05-05T13:36:47.440Z,39.70
2019-05-05T13:39:21.242Z,42.23
2019-05-05T13:41:53.992Z,39.20
2019-05-05T13:44:40.233Z,41.18
2019-05-05T13:54:24.072Z,41.85
2019-05-05T13:56:56.027Z,39.78
2019-05-05T13:59:29.183Z,42.35
2019-05-05T14:02:01.705Z,41.40
2019-05-05T14:04:36.153Z,41.20
2019-05-05T14:09:41.712Z,40.45
2019-05-05T14:12:14.737Z,41.83
2019-05-05T14:14:47.776Z,39.40
2019-05-05T14:17:22.670Z,42.88
2019-05-05T14:20:05.190Z,41.80
2019-05-05T14:22:34.525Z,43.28
2019-05-05T14:25:24.067Z,42.08
2019-05-05T14:27:57.204Z,42.98
2019-05-05T14:30:54.028Z,39.92
2019-05-05T14:33:31.819Z,39.38
2019-05-05T14:36:15.207Z,39.27
2019-05-05T14:38:54.055Z,42.38
2019-05-05T14:41:26.360Z,38.40
2019-05-05T14:43:59.026Z,41.02
2019-05-05T14:46:33.927Z,36.63
2019-05-05T14:49:07.226Z,43.35
2019-05-05T14:51:40.842Z,41.08
2019-05-05T14:54:14.995Z,39.00
2019-05-05T14:56:49.623Z,40.83
2019-05-05T14:59:23.513Z,42.67
2019-05-05T15:01:56.600Z,41.88
2019-05-05T15:04:30.507Z,38.00
2019-05-05T15:07:10.606Z,37.58
2019-05-05T15:10:04.227Z,38.38
2019-05-05T15:12:38.526Z,41.88
2019-05-05T15:15:11.060Z,41.00
2019-05-05T15:17:43.686Z,42.08
2019-05-05T15:20:16.970Z,42.03
2019-05-05T15:22:49.558Z,43.70
2019-05-05T15:25:23.446Z,37.85
2019-05-05T15:27:56.860Z,38.23
2019-05-05T15:30:29.376Z,40.45
2019-05-05T15:33:01.924Z,42.33
2019-05-05T15:35:34.134Z,44.35
2019-05-05T15:38:07.904Z,41.85
2019-05-05T15:40:41.714Z,43.25
2019-05-05T15:43:14.357Z,45.48
2019-05-05T15:45:47.884Z,39.42
2019-05-05T15:48:20.511Z,44.10
2019-05-05T15:50:54.504Z,34.13
2019-05-05T15:53:26.928Z,38.35
2019-05-05T15:55:59.488Z,35.98
2019-05-05T15:58:34.287Z,40.60
2019-05-05T16:01:06.826Z,43.25
2019-05-05T16:03:43.554Z,42.30
2019-05-05T16:06:16.314Z,42.25
2019-05-05T16:08:49.134Z,39.88
2019-05-05T16:11:23.400Z,28.87
2019-05-05T16:13:56.218Z,40.98
2019-05-05T16:19:18.207Z,42.13
2019-05-05T16:21:58.166Z,42.20
2019-05-05T16:24:38.432Z,44.85
2019-05-05T16:27:21.160Z,42.17
2019-05-05T16:29:46.594Z,42.80
2019-05-05T16:32:22.074Z,40.60
2019-05-05T16:34:54.901Z,43.40
2019-05-05T16:37:28.634Z,47.90
2019-05-05T16:40:01.171Z,48.58
2019-05-05T16:42:35.120Z,59.75
2019-05-05T16:45:13.665Z,54.23
2019-05-05T16:47:46.183Z,44.03
2019-05-05T16:50:18.892Z,104.07
2019-05-05T16:53:03.768Z,80.97
2019-05-05T16:55:44.836Z,47.45
2019-05-05T16:58:17.360Z,46.95
2019-05-05T17:00:50.223Z,44.08
2019-05-05T17:03:23.952Z,48.68
2019-05-05T17:05:59.464Z,45.35
2019-05-05T17:08:33.607Z,74.95
2019-05-05T17:11:05.815Z,53.23
2019-05-05T17:13:54.182Z,55.25
2019-05-05T17:16:36.832Z,49.05
2019-05-05T17:19:13.788Z,46.85
2019-05-05T17:21:53.592Z,48.02
2019-05-05T17:24:26.639Z,44.95
2019-05-05T17:27:00.836Z,47.45
2019-05-05T17:32:04.831Z,48.08
2019-05-05T17:34:37.301Z,47.20
2019-05-05T17:37:10.251Z,46.55
2019-05-05T17:42:24.160Z,47.38
2019-05-05T17:44:59.101Z,48.42
2019-05-05T17:47:41.779Z,48.30
2019-05-05T17:50:15.558Z,48.73
2019-05-05T17:53:05.079Z,48.98
2019-05-05T17:55:38.886Z,46.58
2019-05-05T17:58:11.427Z,46.83
2019-05-05T18:00:47.125Z,49.00
2019-05-05T18:03:20.120Z,46.85
2019-05-05T18:05:54.748Z,48.85
2019-05-05T18:08:46.912Z,49.93
2019-05-05T18:11:37.211Z,46.95
2019-05-05T18:14:11.296Z,39.80
2019-05-05T18:16:44.761Z,44.83
2019-05-05T18:19:17.317Z,45.52
2019-05-05T18:21:50.278Z,44.55
2019-05-05T18:24:24.303Z,44.08
2019-05-05T18:29:28.466Z,43.10
2019-05-05T18:32:01.040Z,47.08
2019-05-05T18:34:33.815Z,47.75
2019-05-05T18:37:06.580Z,50.63
2019-05-05T18:42:14.794Z,51.75
2019-05-05T18:44:49.988Z,51.10
2019-05-05T18:47:24.861Z,55.65
2019-05-05T18:49:56.619Z,55.83
2019-05-05T18:52:29.434Z,55.50
2019-05-05T18:57:35.201Z,54.43
2019-05-05T19:00:09.954Z,54.30
2019-05-05T19:02:44.290Z,55.52
2019-05-05T19:05:18.559Z,51.90
2019-05-05T19:08:04.776Z,55.63
2019-05-05T19:10:37.911Z,51.33
2019-05-05T19:13:11.095Z,53.87
2019-05-05T19:15:44.610Z,53.70
2019-05-05T19:18:17.691Z,51.40
2019-05-05T19:20:54.856Z,54.33
2019-05-05T19:23:27.261Z,57.10
2019-05-05T19:25:59.699Z,58.95
2019-05-05T19:28:42.095Z,54.88
2019-05-05T19:31:06.254Z,55.23
2019-05-05T19:33:39.219Z,60.58
2019-05-05T19:36:12.156Z,59.90
2019-05-05T19:38:44.584Z,57.83
2019-05-05T19:41:17.433Z,64.00
2019-05-05T19:43:54.964Z,55.33
2019-05-05T19:46:45.694Z,57.75
2019-05-05T19:49:21.735Z,61.18
2019-05-05T19:51:54.376Z,60.23
2019-05-05T19:54:27.053Z,61.73
2019-05-05T19:56:59.778Z,49.05
2019-05-05T20:02:04.505Z,60.90
2019-05-05T20:04:36.928Z,58.52
2019-05-05T20:07:09.703Z,59.48
2019-05-05T20:09:43.610Z,56.13
2019-05-05T20:12:16.261Z,58.87
2019-05-05T20:14:48.977Z,59.27
2019-05-05T20:17:35.143Z,60.55
2019-05-05T20:20:09.249Z,52.88
2019-05-05T20:22:44.186Z,56.45
2019-05-05T20:25:16.526Z,48.87
2019-05-05T20:27:49.031Z,52.95
2019-05-05T20:30:21.853Z,54.77
2019-05-05T20:32:56.368Z,58.98
2019-05-05T20:35:30.878Z,57.27
2019-05-05T20:38:21.082Z,58.55
2019-05-05T20:41:14.233Z,58.15
2019-05-05T20:43:47.670Z,54.88
2019-05-05T20:46:20.316Z,56.02
2019-05-05T20:48:54.444Z,53.13
2019-05-05T20:51:26.486Z,53.55
2019-05-05T20:53:58.834Z,50.95
2019-05-05T20:56:33.665Z,53.42
2019-05-05T20:59:05.213Z,51.95
2019-05-05T21:01:37.826Z,52.58
2019-05-05T21:04:10.186Z,54.85
2019-05-05T21:06:43.851Z,52.78
2019-05-05T21:09:16.387Z,52.33
2019-05-05T21:11:49.055Z,51.23
2019-05-05T21:14:33.724Z,49.75
2019-05-05T21:16:55.312Z,49.50
2019-05-05T21:19:28.583Z,51.33
2019-05-05T21:22:04.206Z,47.48
2019-05-05T21:24:36.958Z,49.40
2019-05-05T21:27:09.486Z,46.83
2019-05-05T21:29:42.460Z,50.70
2019-05-05T21:32:17.199Z,49.03
2019-05-05T21:34:49.438Z,49.70
2019-05-05T21:37:22.151Z,51.40
2019-05-05T21:42:27.636Z,48.63
2019-05-05T21:45:00.572Z,48.85
2019-05-05T21:47:34.436Z,48.90
2019-05-05T21:50:08.429Z,50.83
2019-05-05T21:52:42.068Z,51.63
2019-05-05T21:55:24.458Z,52.10
2019-05-05T21:58:01.639Z,50.60
2019-05-05T22:00:41.475Z,50.78
2019-05-05T22:03:16.472Z,52.27
2019-05-05T22:05:49.238Z,54.23
2019-05-05T22:08:23.844Z,53.65
2019-05-05T22:10:55.977Z,54.05
2019-05-05T22:13:29.269Z,55.08
2019-05-05T22:16:03.887Z,58.55
2019-05-05T22:18:36.417Z,55.75
2019-05-05T22:21:10.269Z,58.08
2019-05-05T22:23:44.062Z,57.95
2019-05-05T22:26:17.351Z,58.10
2019-05-05T22:28:50.297Z,60.85
2019-05-05T22:31:23.812Z,60.33
2019-05-05T22:33:56.517Z,58.80
2019-05-05T22:36:29.088Z,59.08
2019-05-05T22:39:01.579Z,59.48
2019-05-05T22:41:35.994Z,57.90
2019-05-05T22:44:10.300Z,62.10
2019-05-05T22:46:42.635Z,64.17
2019-05-05T22:49:15.379Z,63.23
2019-05-05T22:51:47.881Z,60.98
2019-05-05T22:54:20.856Z,62.33
2019-05-05T22:56:53.997Z,62.65
2019-05-05T22:59:28.026Z,61.50
2019-05-05T23:02:00.412Z,55.00
2019-05-05T23:07:55.310Z,50.88
2019-05-05T23:10:28.100Z,48.02
2019-05-05T23:13:00.843Z,57.23
2019-05-05T23:15:37.027Z,52.70
2019-05-05T23:18:17.607Z,54.80
2019-05-05T23:21:09.545Z,51.02
2019-05-05T23:23:43.344Z,49.95
2019-05-05T23:26:17.782Z,52.75
2019-05-05T23:28:51.114Z,53.40
2019-05-05T23:31:24.243Z,54.15
2019-05-05T23:33:56.840Z,50.20
2019-05-05T23:36:29.784Z,50.35
2019-05-05T23:39:03.992Z,52.15
2019-05-05T23:41:37.484Z,53.65
2019-05-05T23:46:41.686Z,54.53
2019-05-05T23:49:14.750Z,55.88
2019-05-05T23:54:18.614Z,54.80
2019-05-05T23:56:53.621Z,53.23
2019-05-05T23:59:25.593Z,54.77
